Alburgh, New York
Current Conditions -  °F | °C
As of 10:53 AM on Thursday 23 Oct 2014 (Local Time) from KMSS Reporting Station
Overcast Overcast  
Wind Chill: 50°   Ceiling: 4000
Heat Index: 50°   Visibility: 10mi
Dew Point: 37°   Wind: 17mph
Humidity: 61%   Direction: 40°NE
Pressure: 30.07"   Gusts: 25mph
Location:  44.8293°N, 74.5271°W
Report Text: KMSS 231453Z AUTO 04015G22KT 10SM OVC040 10/03 A3007 RMK AO2 SLP185 T01000028 56013
Loading
Personal Weather Stations






























Interactive Weather Map
Tropical Storm Tracking
New forecast layout! Learn more

10-Day Weather Forecast

Advertisements
Track Severe Weather on mobile